sensor_id;sensor_type;location;lat;lon;timestamp;pressure;altitude;pressure_sealevel;temperature;humidity
14383;BME280;7275;50.328;8.720;2023-01-28T00:01:11;100631.13;;;8.95;50.03
14383;BME280;7275;50.328;8.720;2023-01-28T00:03:39;100639.09;;;8.94;49.72
14383;BME280;7275;50.328;8.720;2023-01-28T00:06:09;100631.25;;;8.91;49.92
14383;BME280;7275;50.328;8.720;2023-01-28T00:08:38;100633.91;;;8.88;49.78
14383;BME280;7275;50.328;8.720;2023-01-28T00:11:09;100632.22;;;8.83;49.98
14383;BME280;7275;50.328;8.720;2023-01-28T00:13:38;100639.31;;;8.78;49.70
14383;BME280;7275;50.328;8.720;2023-01-28T00:16:07;100643.81;;;8.73;49.64
14383;BME280;7275;50.328;8.720;2023-01-28T00:18:35;100633.31;;;8.69;49.97
14383;BME280;7275;50.328;8.720;2023-01-28T00:21:05;100628.09;;;8.64;49.77
14383;BME280;7275;50.328;8.720;2023-01-28T00:23:34;100636.06;;;8.60;49.82
14383;BME280;7275;50.328;8.720;2023-01-28T00:26:04;100626.53;;;8.53;50.02
14383;BME280;7275;50.328;8.720;2023-01-28T00:28:33;100634.50;;;8.48;49.98
14383;BME280;7275;50.328;8.720;2023-01-28T00:31:05;100638.94;;;8.43;50.10
14383;BME280;7275;50.328;8.720;2023-01-28T00:33:33;100636.38;;;8.40;50.22
14383;BME280;7275;50.328;8.720;2023-01-28T00:36:02;100635.53;;;8.37;50.12
14383;BME280;7275;50.328;8.720;2023-01-28T00:38:32;100634.69;;;8.36;50.42
14383;BME280;7275;50.328;8.720;2023-01-28T00:41:06;100636.47;;;8.34;50.65
14383;BME280;7275;50.328;8.720;2023-01-28T00:43:36;100634.69;;;8.36;50.45
14383;BME280;7275;50.328;8.720;2023-01-28T00:46:04;100627.66;;;8.35;50.36
14383;BME280;7275;50.328;8.720;2023-01-28T00:48:33;100631.19;;;8.33;50.43
14383;BME280;7275;50.328;8.720;2023-01-28T00:51:00;100631.22;;;8.31;50.37
14383;BME280;7275;50.328;8.720;2023-01-28T00:53:28;100630.38;;;8.29;50.35
14383;BME280;7275;50.328;8.720;2023-01-28T00:55:55;100633.91;;;8.27;50.29
14383;BME280;7275;50.328;8.720;2023-01-28T00:58:23;100631.31;;;8.21;50.29
14383;BME280;7275;50.328;8.720;2023-01-28T01:00:52;100629.63;;;8.17;50.30
14383;BME280;7275;50.328;8.720;2023-01-28T01:03:19;100631.44;;;8.12;50.38
14383;BME280;7275;50.328;8.720;2023-01-28T01:05:47;100629.75;;;8.06;50.33
14383;BME280;7275;50.328;8.720;2023-01-28T01:08:14;100625.41;;;8.02;50.40
14383;BME280;7275;50.328;8.720;2023-01-28T01:10:42;100636.88;;;7.98;50.35
14383;BME280;7275;50.328;8.720;2023-01-28T01:13:09;100633.41;;;7.94;50.45
14383;BME280;7275;50.328;8.720;2023-01-28T01:15:37;100627.28;;;7.92;50.50
14383;BME280;7275;50.328;8.720;2023-01-28T01:18:06;100629.94;;;7.89;50.55
14383;BME280;7275;50.328;8.720;2023-01-28T01:20:33;100631.72;;;7.87;50.34
14383;BME280;7275;50.328;8.720;2023-01-28T01:23:05;100625.63;;;7.82;50.35
14383;BME280;7275;50.328;8.720;2023-01-28T01:25:32;100631.81;;;7.78;50.64
14383;BME280;7275;50.328;8.720;2023-01-28T01:28:00;100638.88;;;7.75;50.69
14383;BME280;7275;50.328;8.720;2023-01-28T01:30:27;100641.53;;;7.72;50.68
14383;BME280;7275;50.328;8.720;2023-01-28T01:32:56;100641.59;;;7.69;50.70
14383;BME280;7275;50.328;8.720;2023-01-28T01:35:25;100649.50;;;7.67;50.69
14383;BME280;7275;50.328;8.720;2023-01-28T01:37:52;100647.72;;;7.68;50.90
14383;BME280;7275;50.328;8.720;2023-01-28T01:40:19;100655.63;;;7.69;50.95
14383;BME280;7275;50.328;8.720;2023-01-28T01:42:47;100658.22;;;7.71;50.98
14383;BME280;7275;50.328;8.720;2023-01-28T01:45:14;100654.69;;;7.72;51.10
14383;BME280;7275;50.328;8.720;2023-01-28T01:47:46;100659.06;;;7.76;51.23
14383;BME280;7275;50.328;8.720;2023-01-28T01:50:24;100656.41;;;7.79;51.26
14383;BME280;7275;50.328;8.720;2023-01-28T01:52:59;100659.84;;;7.85;51.15
14383;BME280;7275;50.328;8.720;2023-01-28T01:55:31;100653.63;;;7.91;51.27
14383;BME280;7275;50.328;8.720;2023-01-28T01:58:06;100666.72;;;7.95;51.06
14383;BME280;7275;50.328;8.720;2023-01-28T02:00:35;100671.03;;;8.01;51.04
14383;BME280;7275;50.328;8.720;2023-01-28T02:03:03;100675.41;;;8.06;51.32
14383;BME280;7275;50.328;8.720;2023-01-28T02:05:30;100666.53;;;8.12;51.20
14383;BME280;7275;50.328;8.720;2023-01-28T02:07:59;100665.59;;;8.16;51.10
14383;BME280;7275;50.328;8.720;2023-01-28T02:10:41;100664.69;;;8.22;51.16
14383;BME280;7275;50.328;8.720;2023-01-28T02:13:09;100669.91;;;8.28;51.09
14383;BME280;7275;50.328;8.720;2023-01-28T02:15:36;100661.03;;;8.33;50.91
14383;BME280;7275;50.328;8.720;2023-01-28T02:18:04;100668.88;;;8.39;51.25
14383;BME280;7275;50.328;8.720;2023-01-28T02:20:40;100667.94;;;8.43;50.92
14383;BME280;7275;50.328;8.720;2023-01-28T02:23:33;100666.16;;;8.47;50.82
14383;BME280;7275;50.328;8.720;2023-01-28T02:26:44;100673.19;;;8.46;50.81
14383;BME280;7275;50.328;8.720;2023-01-28T02:29:23;100674.91;;;8.47;51.04
14383;BME280;7275;50.328;8.720;2023-01-28T02:31:59;100677.47;;;8.52;50.85
14383;BME280;7275;50.328;8.720;2023-01-28T02:34:35;100680.94;;;8.55;50.92
14383;BME280;7275;50.328;8.720;2023-01-28T02:37:09;100671.25;;;8.59;50.85
14383;BME280;7275;50.328;8.720;2023-01-28T02:39:43;100675.59;;;8.60;50.76
14383;BME280;7275;50.328;8.720;2023-01-28T02:42:14;100676.47;;;8.60;50.76
14383;BME280;7275;50.328;8.720;2023-01-28T02:44:45;100673.88;;;8.59;50.69
14383;BME280;7275;50.328;8.720;2023-01-28T02:47:14;100658.97;;;8.56;50.81
14383;BME280;7275;50.328;8.720;2023-01-28T02:50:02;100672.97;;;8.60;50.61
14383;BME280;7275;50.328;8.720;2023-01-28T02:52:45;100676.47;;;8.60;50.56
14383;BME280;7275;50.328;8.720;2023-01-28T02:55:38;100677.38;;;8.58;50.95
14383;BME280;7275;50.328;8.720;2023-01-28T02:58:15;100680.91;;;8.58;50.92
14383;BME280;7275;50.328;8.720;2023-01-28T03:00:51;100675.63;;;8.58;50.98
14383;BME280;7275;50.328;8.720;2023-01-28T03:03:25;100689.66;;;8.60;51.01
14383;BME280;7275;50.328;8.720;2023-01-28T03:05:57;100684.38;;;8.62;50.86
14383;BME280;7275;50.328;8.720;2023-01-28T03:08:34;100687.00;;;8.63;50.58
14383;BME280;7275;50.328;8.720;2023-01-28T03:11:20;100688.78;;;8.61;50.76
14383;BME280;7275;50.328;8.720;2023-01-28T03:14:06;100694.06;;;8.60;50.60
14383;BME280;7275;50.328;8.720;2023-01-28T03:16:56;100694.13;;;8.57;50.84
14383;BME280;7275;50.328;8.720;2023-01-28T03:19:43;100698.47;;;8.58;50.75
14383;BME280;7275;50.328;8.720;2023-01-28T03:22:31;100691.47;;;8.57;50.60
14383;BME280;7275;50.328;8.720;2023-01-28T03:25:20;100699.38;;;8.57;50.75
14383;BME280;7275;50.328;8.720;2023-01-28T03:28:10;100701.13;;;8.56;50.88
14383;BME280;7275;50.328;8.720;2023-01-28T03:30:59;100700.25;;;8.56;50.71
14383;BME280;7275;50.328;8.720;2023-01-28T03:33:49;100706.41;;;8.56;50.83
14383;BME280;7275;50.328;8.720;2023-01-28T03:36:35;100702.91;;;8.56;50.60
14383;BME280;7275;50.328;8.720;2023-01-28T03:39:17;100699.41;;;8.54;50.82
14383;BME280;7275;50.328;8.720;2023-01-28T03:41:57;100703.81;;;8.53;50.75
14383;BME280;7275;50.328;8.720;2023-01-28T03:44:25;100712.63;;;8.52;50.64
14383;BME280;7275;50.328;8.720;2023-01-28T03:47:10;100716.16;;;8.50;50.57
14383;BME280;7275;50.328;8.720;2023-01-28T03:49:40;100720.53;;;8.52;50.70
14383;BME280;7275;50.328;8.720;2023-01-28T03:52:07;100721.41;;;8.53;50.62
14383;BME280;7275;50.328;8.720;2023-01-28T03:54:35;100717.84;;;8.54;50.64
14383;BME280;7275;50.328;8.720;2023-01-28T03:57:03;100716.97;;;8.55;50.62
14383;BME280;7275;50.328;8.720;2023-01-28T03:59:31;100713.47;;;8.54;50.59
14383;BME280;7275;50.328;8.720;2023-01-28T04:01:59;100714.34;;;8.55;50.64
14383;BME280;7275;50.328;8.720;2023-01-28T04:04:28;100713.44;;;8.56;50.52
14383;BME280;7275;50.328;8.720;2023-01-28T04:06:59;100709.06;;;8.53;50.65
14383;BME280;7275;50.328;8.720;2023-01-28T04:09:26;100709.97;;;8.52;50.57
14383;BME280;7275;50.328;8.720;2023-01-28T04:11:54;100716.97;;;8.53;50.60
14383;BME280;7275;50.328;8.720;2023-01-28T04:14:21;100714.34;;;8.53;50.35
14383;BME280;7275;50.328;8.720;2023-01-28T04:16:49;100716.97;;;8.53;50.55
14383;BME280;7275;50.328;8.720;2023-01-28T04:19:17;100724.00;;;8.54;50.40
14383;BME280;7275;50.328;8.720;2023-01-28T04:21:44;100724.84;;;8.58;50.51
14383;BME280;7275;50.328;8.720;2023-01-28T04:24:14;100725.72;;;8.58;50.25
14383;BME280;7275;50.328;8.720;2023-01-28T04:26:41;100726.53;;;8.62;50.32
14383;BME280;7275;50.328;8.720;2023-01-28T04:29:09;100728.28;;;8.63;50.11
14383;BME280;7275;50.328;8.720;2023-01-28T04:31:36;100722.13;;;8.62;50.28
14383;BME280;7275;50.328;8.720;2023-01-28T04:34:04;100720.38;;;8.63;50.31
14383;BME280;7275;50.328;8.720;2023-01-28T04:36:31;100718.63;;;8.62;50.26
14383;BME280;7275;50.328;8.720;2023-01-28T04:38:59;100729.16;;;8.62;50.22
14383;BME280;7275;50.328;8.720;2023-01-28T04:41:28;100723.03;;;8.63;50.10
14383;BME280;7275;50.328;8.720;2023-01-28T04:43:55;100717.78;;;8.61;50.12
14383;BME280;7275;50.328;8.720;2023-01-28T04:46:23;100727.41;;;8.62;50.00
14383;BME280;7275;50.328;8.720;2023-01-28T04:48:51;100728.28;;;8.63;50.25
14383;BME280;7275;50.328;8.720;2023-01-28T04:51:18;100732.66;;;8.65;50.29
14383;BME280;7275;50.328;8.720;2023-01-28T04:53:46;100737.91;;;8.67;50.07
14383;BME280;7275;50.328;8.720;2023-01-28T04:56:13;100731.75;;;8.66;49.91
14383;BME280;7275;50.328;8.720;2023-01-28T04:58:42;100738.78;;;8.66;50.12
14383;BME280;7275;50.328;8.720;2023-01-28T05:01:10;100731.78;;;8.65;50.31
14383;BME280;7275;50.328;8.720;2023-01-28T05:03:37;100733.50;;;8.66;50.06
14383;BME280;7275;50.328;8.720;2023-01-28T05:06:05;100738.78;;;8.66;50.01
14383;BME280;7275;50.328;8.720;2023-01-28T05:08:32;100729.13;;;8.66;49.84
14383;BME280;7275;50.328;8.720;2023-01-28T05:11:00;100734.34;;;8.68;49.99
14383;BME280;7275;50.328;8.720;2023-01-28T05:13:27;100731.72;;;8.69;50.00
14383;BME280;7275;50.328;8.720;2023-01-28T05:15:56;100735.22;;;8.71;49.92
14383;BME280;7275;50.328;8.720;2023-01-28T05:18:23;100743.13;;;8.71;49.80
14383;BME280;7275;50.328;8.720;2023-01-28T05:20:51;100735.19;;;8.73;49.94
14383;BME280;7275;50.328;8.720;2023-01-28T05:23:18;100736.94;;;8.74;49.82
14383;BME280;7275;50.328;8.720;2023-01-28T05:25:46;100740.41;;;8.74;49.85
14383;BME280;7275;50.328;8.720;2023-01-28T05:28:13;100744.81;;;8.75;49.74
14383;BME280;7275;50.328;8.720;2023-01-28T05:30:41;100740.44;;;8.73;49.99
14383;BME280;7275;50.328;8.720;2023-01-28T05:33:09;100749.25;;;8.73;49.67
14383;BME280;7275;50.328;8.720;2023-01-28T05:35:37;100760.66;;;8.72;50.02
14383;BME280;7275;50.328;8.720;2023-01-28T05:38:05;100756.28;;;8.71;49.62
14383;BME280;7275;50.328;8.720;2023-01-28T05:40:32;100752.78;;;8.71;49.84
14383;BME280;7275;50.328;8.720;2023-01-28T05:43:00;100756.28;;;8.71;49.73
14383;BME280;7275;50.328;8.720;2023-01-28T05:45:27;100758.09;;;8.69;49.97
14383;BME280;7275;50.328;8.720;2023-01-28T05:47:55;100760.72;;;8.69;49.91
14383;BME280;7275;50.328;8.720;2023-01-28T05:50:23;100758.09;;;8.69;49.93
14383;BME280;7275;50.328;8.720;2023-01-28T05:52:51;100764.22;;;8.68;49.79
14383;BME280;7275;50.328;8.720;2023-01-28T05:55:18;100767.78;;;8.67;50.04
14383;BME280;7275;50.328;8.720;2023-01-28T05:57:47;100766.91;;;8.67;49.93
14383;BME280;7275;50.328;8.720;2023-01-28T06:00:15;100766.88;;;8.68;49.75
14383;BME280;7275;50.328;8.720;2023-01-28T06:02:43;100766.84;;;8.70;49.82
14383;BME280;7275;50.328;8.720;2023-01-28T06:05:11;100773.00;;;8.70;49.78
14383;BME280;7275;50.328;8.720;2023-01-28T06:07:43;100780.03;;;8.71;49.75
14383;BME280;7275;50.328;8.720;2023-01-28T06:10:11;100779.13;;;8.72;49.82
14383;BME280;7275;50.328;8.720;2023-01-28T06:12:39;100780.88;;;8.73;49.50
14383;BME280;7275;50.328;8.720;2023-01-28T06:15:07;100793.16;;;8.73;49.64
14383;BME280;7275;50.328;8.720;2023-01-28T06:17:35;100790.56;;;8.71;49.55
14383;BME280;7275;50.328;8.720;2023-01-28T06:20:03;100794.06;;;8.70;49.46
14383;BME280;7275;50.328;8.720;2023-01-28T06:22:31;100788.78;;;8.72;49.35
14383;BME280;7275;50.328;8.720;2023-01-28T06:24:59;100794.97;;;8.69;49.80
14383;BME280;7275;50.328;8.720;2023-01-28T06:27:27;100791.44;;;8.70;49.75
14383;BME280;7275;50.328;8.720;2023-01-28T06:29:54;100794.97;;;8.71;49.72
14383;BME280;7275;50.328;8.720;2023-01-28T06:32:22;100800.25;;;8.69;49.61
14383;BME280;7275;50.328;8.720;2023-01-28T06:34:49;100800.25;;;8.68;49.54
14383;BME280;7275;50.328;8.720;2023-01-28T06:37:17;100797.63;;;8.69;49.76
14383;BME280;7275;50.328;8.720;2023-01-28T06:39:45;100801.09;;;8.71;49.57
14383;BME280;7275;50.328;8.720;2023-01-28T06:42:14;100799.31;;;8.73;49.57
14383;BME280;7275;50.328;8.720;2023-01-28T06:44:41;100806.31;;;8.76;49.43
14383;BME280;7275;50.328;8.720;2023-01-28T06:47:09;100804.53;;;8.76;49.57
14383;BME280;7275;50.328;8.720;2023-01-28T06:49:36;100815.94;;;8.80;49.38
14383;BME280;7275;50.328;8.720;2023-01-28T06:52:04;100815.00;;;8.82;49.39
14383;BME280;7275;50.328;8.720;2023-01-28T06:54:31;100811.53;;;8.82;49.26
14383;BME280;7275;50.328;8.720;2023-01-28T06:56:59;100819.44;;;8.82;49.36
14383;BME280;7275;50.328;8.720;2023-01-28T06:59:28;100814.16;;;8.82;49.47
14383;BME280;7275;50.328;8.720;2023-01-28T07:01:55;100821.16;;;8.83;49.45
14383;BME280;7275;50.328;8.720;2023-01-28T07:04:23;100818.56;;;8.81;49.27
14383;BME280;7275;50.328;8.720;2023-01-28T07:06:50;100828.16;;;8.85;49.42
14383;BME280;7275;50.328;8.720;2023-01-28T07:09:18;100829.03;;;8.88;49.14
14383;BME280;7275;50.328;8.720;2023-01-28T07:11:45;100828.16;;;8.85;49.25
14383;BME280;7275;50.328;8.720;2023-01-28T07:14:13;100827.25;;;8.86;49.45
14383;BME280;7275;50.328;8.720;2023-01-28T07:16:41;100828.16;;;8.89;49.08
14383;BME280;7275;50.328;8.720;2023-01-28T07:19:09;100832.53;;;8.86;49.23
14383;BME280;7275;50.328;8.720;2023-01-28T07:21:36;100833.41;;;8.87;49.38
14383;BME280;7275;50.328;8.720;2023-01-28T07:24:04;100833.41;;;8.87;49.29
14383;BME280;7275;50.328;8.720;2023-01-28T07:26:32;100843.97;;;8.87;49.43
14383;BME280;7275;50.328;8.720;2023-01-28T07:28:59;100831.72;;;8.81;49.34
14383;BME280;7275;50.328;8.720;2023-01-28T07:31:27;100838.75;;;8.84;49.39
14383;BME280;7275;50.328;8.720;2023-01-28T07:33:56;100836.09;;;8.82;49.09
14383;BME280;7275;50.328;8.720;2023-01-28T07:36:23;100841.41;;;8.81;49.41
14383;BME280;7275;50.328;8.720;2023-01-28T07:38:51;100844.94;;;8.78;49.24
14383;BME280;7275;50.328;8.720;2023-01-28T07:41:18;100844.97;;;8.77;49.08
14383;BME280;7275;50.328;8.720;2023-01-28T07:43:46;100842.34;;;8.75;49.40
14383;BME280;7275;50.328;8.720;2023-01-28T07:46:13;100847.66;;;8.74;49.18
14383;BME280;7275;50.328;8.720;2023-01-28T07:48:40;100861.69;;;8.76;49.20
14383;BME280;7275;50.328;8.720;2023-01-28T07:51:09;100849.34;;;8.76;49.24
14383;BME280;7275;50.328;8.720;2023-01-28T07:53:37;100851.16;;;8.76;49.28
14383;BME280;7275;50.328;8.720;2023-01-28T07:56:05;100859.91;;;8.76;49.37
14383;BME280;7275;50.328;8.720;2023-01-28T07:58:33;100852.91;;;8.75;48.90
14383;BME280;7275;50.328;8.720;2023-01-28T08:01:01;100859.91;;;8.76;49.06
14383;BME280;7275;50.328;8.720;2023-01-28T08:03:29;100863.44;;;8.75;48.96
14383;BME280;7275;50.328;8.720;2023-01-28T08:05:56;100859.91;;;8.76;49.17
14383;BME280;7275;50.328;8.720;2023-01-28T08:08:26;100862.53;;;8.76;48.84
14383;BME280;7275;50.328;8.720;2023-01-28T08:10:53;100864.31;;;8.76;49.19
14383;BME280;7275;50.328;8.720;2023-01-28T08:13:21;100870.44;;;8.76;49.18
14383;BME280;7275;50.328;8.720;2023-01-28T08:15:49;100863.41;;;8.77;49.17
14383;BME280;7275;50.328;8.720;2023-01-28T08:18:21;100865.19;;;8.78;48.82
14383;BME280;7275;50.328;8.720;2023-01-28T08:20:54;100864.28;;;8.79;49.02
14383;BME280;7275;50.328;8.720;2023-01-28T08:23:21;100873.94;;;8.78;48.91
14383;BME280;7275;50.328;8.720;2023-01-28T08:25:51;100872.19;;;8.79;48.98
14383;BME280;7275;50.328;8.720;2023-01-28T08:28:20;100869.53;;;8.80;48.77
14383;BME280;7275;50.328;8.720;2023-01-28T08:30:47;100873.91;;;8.81;48.90
14383;BME280;7275;50.328;8.720;2023-01-28T08:33:16;100873.88;;;8.83;48.89
14383;BME280;7275;50.328;8.720;2023-01-28T08:35:44;100876.53;;;8.83;48.76
14383;BME280;7275;50.328;8.720;2023-01-28T08:38:13;100876.53;;;8.83;48.97
14383;BME280;7275;50.328;8.720;2023-01-28T08:40:42;100875.66;;;8.84;49.02
14383;BME280;7275;50.328;8.720;2023-01-28T08:43:12;100880.03;;;8.85;48.64
14383;BME280;7275;50.328;8.720;2023-01-28T08:45:39;100888.78;;;8.87;48.69
14383;BME280;7275;50.328;8.720;2023-01-28T08:48:10;100878.25;;;8.89;48.89
14383;BME280;7275;50.328;8.720;2023-01-28T08:50:38;100880.00;;;8.86;48.57
14383;BME280;7275;50.328;8.720;2023-01-28T08:53:08;100883.53;;;8.85;48.54
14383;BME280;7275;50.328;8.720;2023-01-28T08:55:36;100892.31;;;8.86;48.80
14383;BME280;7275;50.328;8.720;2023-01-28T08:58:05;100889.69;;;8.84;48.50
14383;BME280;7275;50.328;8.720;2023-01-28T09:00:35;100887.94;;;8.85;48.86
14383;BME280;7275;50.328;8.720;2023-01-28T09:03:03;100886.16;;;8.85;48.68
14383;BME280;7275;50.328;8.720;2023-01-28T09:05:32;100888.78;;;8.87;48.89
14383;BME280;7275;50.328;8.720;2023-01-28T09:08:00;100886.13;;;8.90;48.65
14383;BME280;7275;50.328;8.720;2023-01-28T09:10:28;100888.72;;;8.95;48.54
14383;BME280;7275;50.328;8.720;2023-01-28T09:12:56;100893.91;;;8.99;48.79
14383;BME280;7275;50.328;8.720;2023-01-28T09:15:24;100896.53;;;9.02;48.68
14383;BME280;7275;50.328;8.720;2023-01-28T09:17:57;100887.72;;;9.05;48.73
14383;BME280;7275;50.328;8.720;2023-01-28T09:20:25;100891.13;;;9.10;48.68
14383;BME280;7275;50.328;8.720;2023-01-28T09:22:52;100897.28;;;9.13;48.66
14383;BME280;7275;50.328;8.720;2023-01-28T09:25:20;100886.69;;;9.15;48.77
14383;BME280;7275;50.328;8.720;2023-01-28T09:27:47;100898.97;;;9.17;48.80
14383;BME280;7275;50.328;8.720;2023-01-28T09:30:15;100898.97;;;9.19;48.26
14383;BME280;7275;50.328;8.720;2023-01-28T09:32:43;100907.72;;;9.21;48.64
14383;BME280;7275;50.328;8.720;2023-01-28T09:35:12;100903.31;;;9.21;48.47
14383;BME280;7275;50.328;8.720;2023-01-28T09:37:41;100906.84;;;9.20;48.26
14383;BME280;7275;50.328;8.720;2023-01-28T09:40:12;100913.88;;;9.21;48.66
14383;BME280;7275;50.328;8.720;2023-01-28T09:42:58;100916.47;;;9.26;48.37
14383;BME280;7275;50.328;8.720;2023-01-28T09:45:32;100912.91;;;9.27;48.38
14383;BME280;7275;50.328;8.720;2023-01-28T09:48:04;100923.47;;;9.27;48.27
14383;BME280;7275;50.328;8.720;2023-01-28T09:50:38;100926.09;;;9.27;48.43
14383;BME280;7275;50.328;8.720;2023-01-28T09:53:09;100927.84;;;9.29;48.05
14383;BME280;7275;50.328;8.720;2023-01-28T09:55:42;100934.03;;;9.27;48.35
14383;BME280;7275;50.328;8.720;2023-01-28T09:58:12;100933.16;;;9.28;48.51
14383;BME280;7275;50.328;8.720;2023-01-28T10:00:47;100933.09;;;9.32;48.44
14383;BME280;7275;50.328;8.720;2023-01-28T10:03:27;100926.91;;;9.33;47.96
14383;BME280;7275;50.328;8.720;2023-01-28T10:06:11;100932.16;;;9.35;48.29
14383;BME280;7275;50.328;8.720;2023-01-28T10:09:01;100936.59;;;9.34;47.97
14383;BME280;7275;50.328;8.720;2023-01-28T10:11:41;100946.22;;;9.37;48.45
14383;BME280;7275;50.328;8.720;2023-01-28T10:14:17;100933.91;;;9.37;48.31
14383;BME280;7275;50.328;8.720;2023-01-28T10:16:50;100948.78;;;9.41;48.34
14383;BME280;7275;50.328;8.720;2023-01-28T10:19:25;100947.91;;;9.42;48.26
14383;BME280;7275;50.328;8.720;2023-01-28T10:21:59;100952.34;;;9.39;48.07
14383;BME280;7275;50.328;8.720;2023-01-28T10:24:32;100942.72;;;9.36;47.79
14383;BME280;7275;50.328;8.720;2023-01-28T10:27:01;100939.16;;;9.39;47.92
14383;BME280;7275;50.328;8.720;2023-01-28T10:29:32;100944.41;;;9.39;48.08
14383;BME280;7275;50.328;8.720;2023-01-28T10:32:04;100936.50;;;9.39;47.76
14383;BME280;7275;50.328;8.720;2023-01-28T10:34:34;100940.84;;;9.43;48.04
14383;BME280;7275;50.328;8.720;2023-01-28T10:37:03;100940.78;;;9.47;47.66
14383;BME280;7275;50.328;8.720;2023-01-28T10:39:31;100942.59;;;9.47;47.94
14383;BME280;7275;50.328;8.720;2023-01-28T10:42:00;100949.63;;;9.46;47.82
14383;BME280;7275;50.328;8.720;2023-01-28T10:44:31;100947.91;;;9.41;47.46
14383;BME280;7275;50.328;8.720;2023-01-28T10:47:03;100950.59;;;9.38;47.87
14383;BME280;7275;50.328;8.720;2023-01-28T10:49:31;100944.44;;;9.37;47.87
14383;BME280;7275;50.328;8.720;2023-01-28T10:52:11;100945.34;;;9.36;47.65
14383;BME280;7275;50.328;8.720;2023-01-28T10:54:39;100938.28;;;9.38;47.80
14383;BME280;7275;50.328;8.720;2023-01-28T10:57:10;100941.72;;;9.43;47.48
14383;BME280;7275;50.328;8.720;2023-01-28T10:59:39;100935.53;;;9.46;47.40
14383;BME280;7275;50.328;8.720;2023-01-28T11:02:23;100930.25;;;9.46;47.48
14383;BME280;7275;50.328;8.720;2023-01-28T11:05:00;100946.97;;;9.48;47.56
14383;BME280;7275;50.328;8.720;2023-01-28T11:07:29;100953.09;;;9.50;47.44
14383;BME280;7275;50.328;8.720;2023-01-28T11:09:57;100955.78;;;9.47;47.41
14383;BME280;7275;50.328;8.720;2023-01-28T11:12:26;100939.97;;;9.44;47.54
14383;BME280;7275;50.328;8.720;2023-01-28T11:14:55;100946.13;;;9.44;47.48
14383;BME280;7275;50.328;8.720;2023-01-28T11:17:25;100940.81;;;9.46;47.56
14383;BME280;7275;50.328;8.720;2023-01-28T11:19:57;100949.66;;;9.45;47.20
14383;BME280;7275;50.328;8.720;2023-01-28T11:22:32;100939.06;;;9.46;47.24
14383;BME280;7275;50.328;8.720;2023-01-28T11:25:02;100931.97;;;9.50;47.10
14383;BME280;7275;50.328;8.720;2023-01-28T11:27:31;100932.81;;;9.55;47.19
14383;BME280;7275;50.328;8.720;2023-01-28T11:30:00;100938.03;;;9.56;47.35
14383;BME280;7275;50.328;8.720;2023-01-28T11:32:30;100943.31;;;9.56;47.27
14383;BME280;7275;50.328;8.720;2023-01-28T11:34:58;100937.13;;;9.57;47.09
14383;BME280;7275;50.328;8.720;2023-01-28T11:37:27;100937.97;;;9.62;46.93
14383;BME280;7275;50.328;8.720;2023-01-28T11:40:09;100938.81;;;9.64;46.55
14383;BME280;7275;50.328;8.720;2023-01-28T11:42:47;100937.09;;;9.63;46.96
14383;BME280;7275;50.328;8.720;2023-01-28T11:45:16;100934.41;;;9.65;46.95
14383;BME280;7275;50.328;8.720;2023-01-28T11:47:57;100928.22;;;9.68;46.62
14383;BME280;7275;50.328;8.720;2023-01-28T11:50:37;100926.44;;;9.68;46.78
14383;BME280;7275;50.328;8.720;2023-01-28T11:53:16;100934.28;;;9.73;46.71
14383;BME280;7275;50.328;8.720;2023-01-28T11:56:00;100935.16;;;9.75;46.60
14383;BME280;7275;50.328;8.720;2023-01-28T11:58:40;100929.88;;;9.75;46.58
14383;BME280;7275;50.328;8.720;2023-01-28T12:01:13;100927.25;;;9.73;46.33
14383;BME280;7275;50.328;8.720;2023-01-28T12:03:55;100921.16;;;9.68;46.39
14383;BME280;7275;50.328;8.720;2023-01-28T12:06:45;100927.31;;;9.68;46.28
14383;BME280;7275;50.328;8.720;2023-01-28T12:09:20;100922.03;;;9.68;46.60
14383;BME280;7275;50.328;8.720;2023-01-28T12:12:06;100921.09;;;9.73;46.72
14383;BME280;7275;50.328;8.720;2023-01-28T12:15:07;100912.25;;;9.75;46.34
14383;BME280;7275;50.328;8.720;2023-01-28T12:17:53;100910.44;;;9.80;46.73
14383;BME280;7275;50.328;8.720;2023-01-28T12:20:27;100912.97;;;9.85;46.34
14383;BME280;7275;50.328;8.720;2023-01-28T12:23:16;100907.63;;;9.89;46.06
14383;BME280;7275;50.328;8.720;2023-01-28T12:25:58;100891.75;;;9.92;46.24
14383;BME280;7275;50.328;8.720;2023-01-28T12:28:40;100894.34;;;9.95;45.72
14383;BME280;7275;50.328;8.720;2023-01-28T12:31:31;100906.69;;;9.95;45.97
14383;BME280;7275;50.328;8.720;2023-01-28T12:37:04;100891.69;;;9.95;46.31
14383;BME280;7275;50.328;8.720;2023-01-28T12:39:45;100896.97;;;9.97;46.21
14383;BME280;7275;50.328;8.720;2023-01-28T12:42:20;100888.13;;;9.98;46.08
14383;BME280;7275;50.328;8.720;2023-01-28T12:44:56;100881.03;;;10.03;46.10
14383;BME280;7275;50.328;8.720;2023-01-28T12:47:30;100885.31;;;10.08;45.78
14383;BME280;7275;50.328;8.720;2023-01-28T12:50:03;100891.44;;;10.13;45.81
14383;BME280;7275;50.328;8.720;2023-01-28T12:52:39;100880.81;;;10.16;45.90
14383;BME280;7275;50.328;8.720;2023-01-28T12:55:13;100886.94;;;10.18;45.82
14383;BME280;7275;50.328;8.720;2023-01-28T12:57:42;100884.31;;;10.20;45.44
14383;BME280;7275;50.328;8.720;2023-01-28T13:00:21;100889.56;;;10.21;45.65
14383;BME280;7275;50.328;8.720;2023-01-28T13:02:56;100887.78;;;10.20;45.54
14383;BME280;7275;50.328;8.720;2023-01-28T13:05:32;100894.06;;;10.15;45.39
14383;BME280;7275;50.328;8.720;2023-01-28T13:08:03;100900.22;;;10.14;45.16
14383;BME280;7275;50.328;8.720;2023-01-28T13:10:36;100899.38;;;10.12;45.52
14383;BME280;7275;50.328;8.720;2023-01-28T13:13:05;100895.84;;;10.10;45.39
14383;BME280;7275;50.328;8.720;2023-01-28T13:15:38;100900.25;;;10.12;45.25
14383;BME280;7275;50.328;8.720;2023-01-28T13:18:29;100905.53;;;10.12;45.37
14383;BME280;7275;50.328;8.720;2023-01-28T13:20:58;100914.34;;;10.10;45.37
14383;BME280;7275;50.328;8.720;2023-01-28T13:23:36;100920.56;;;10.09;44.97
14383;BME280;7275;50.328;8.720;2023-01-28T13:26:10;100917.09;;;10.05;45.13
14383;BME280;7275;50.328;8.720;2023-01-28T13:28:38;100925.09;;;10.01;44.85
14383;BME280;7275;50.328;8.720;2023-01-28T13:31:09;100918.97;;;9.97;44.83
14383;BME280;7275;50.328;8.720;2023-01-28T13:33:40;100921.63;;;9.96;45.00
14383;BME280;7275;50.328;8.720;2023-01-28T13:36:21;100923.44;;;9.92;44.74